Time;durP1;ratioP1;P1;durP2;ratioP2;P2;SDS_P1;SDS_P2;PMS_P1;PMS_P2;Temp;Humidity;BMP_temperature;BMP_pressure;BME280_temperature;BME280_humidity;BME280_pressure;Samples;Min_cycle;Max_cycle;Signal;HPM_P1;HPM_P2
2022/02/24 00:00:33;;;;;;;6.10;2.90;;;0.60;99.90;;;;;;5053996;28;20254;-75
2022/02/24 00:02:59;;;;;;;3.60;3.10;;;0.80;99.90;;;;;;5052817;28;20428;-75
2022/02/24 00:05:25;;;;;;;5.07;2.57;;;0.80;99.90;;;;;;5053745;28;20663;-75
2022/02/24 00:07:51;;;;;;;5.43;2.93;;;0.80;99.90;;;;;;5054060;28;20173;-75
2022/02/24 00:10:19;;;;;;;3.80;2.27;;;0.80;99.90;;;;;;5053949;28;20578;-75
2022/02/24 00:12:45;;;;;;;4.03;3.10;;;0.90;99.90;;;;;;5053901;28;20407;-75
2022/02/24 00:15:11;;;;;;;4.63;2.80;;;0.90;99.90;;;;;;5052507;28;20894;-75
2022/02/24 00:17:36;;;;;;;4.27;2.50;;;1.10;99.90;;;;;;5053805;28;20226;-75
2022/02/24 00:20:03;;;;;;;4.77;2.60;;;1.00;99.90;;;;;;5053896;28;20667;-75
2022/02/24 00:22:31;;;;;;;2.73;2.47;;;1.00;99.90;;;;;;5053596;28;20177;-75
2022/02/24 00:24:57;;;;;;;7.10;2.53;;;1.10;99.90;;;;;;5053616;28;20416;-75
2022/02/24 00:27:23;;;;;;;4.57;2.40;;;1.10;99.90;;;;;;5053627;28;20477;-75
2022/02/24 00:29:48;;;;;;;3.93;2.70;;;1.20;99.90;;;;;;5053500;28;20219;-75
2022/02/24 00:32:14;;;;;;;2.63;2.07;;;1.20;99.90;;;;;;5053631;28;20192;-75
2022/02/24 00:34:40;;;;;;;4.43;2.30;;;1.20;99.90;;;;;;5052124;28;20178;-75
2022/02/24 00:37:05;;;;;;;2.93;2.10;;;1.30;99.90;;;;;;5053541;28;20181;-75
2022/02/24 00:39:31;;;;;;;2.63;2.13;;;1.30;99.90;;;;;;5053431;28;20188;-75
2022/02/24 00:41:57;;;;;;;2.37;2.07;;;1.40;99.90;;;;;;5053461;28;20200;-75
2022/02/24 00:44:23;;;;;;;2.77;2.20;;;1.40;99.90;;;;;;5053227;28;20227;-75
2022/02/24 00:46:49;;;;;;;2.53;1.87;;;1.50;99.90;;;;;;5053449;28;20918;-75
2022/02/24 00:49:14;;;;;;;3.20;1.50;;;1.50;99.90;;;;;;5053563;28;20208;-75
2022/02/24 00:51:40;;;;;;;2.23;2.03;;;1.70;99.90;;;;;;5051919;28;20204;-75
2022/02/24 00:54:06;;;;;;;3.37;1.93;;;1.70;99.90;;;;;;5053151;28;20177;-76
2022/02/24 00:56:32;;;;;;;2.23;2.03;;;1.70;99.90;;;;;;5053335;28;20253;-75
2022/02/24 00:58:58;;;;;;;1.93;1.70;;;1.70;99.90;;;;;;5051939;28;20557;-75
2022/02/24 01:01:23;;;;;;;2.70;2.37;;;1.60;99.90;;;;;;5053162;28;20194;-75
2022/02/24 01:03:49;;;;;;;3.03;1.90;;;1.50;99.90;;;;;;5053474;28;20265;-75
2022/02/24 01:06:15;;;;;;;3.50;1.60;;;1.50;99.90;;;;;;5053029;28;20666;-75
2022/02/24 01:08:41;;;;;;;2.57;1.90;;;1.50;99.90;;;;;;5053382;28;20181;-75
2022/02/24 01:11:07;;;;;;;2.07;1.73;;;1.50;99.90;;;;;;5053100;28;20196;-75
2022/02/24 01:13:33;;;;;;;2.83;1.90;;;1.50;99.90;;;;;;5053130;28;20416;-75
2022/02/24 01:15:58;;;;;;;2.37;1.80;;;1.50;99.90;;;;;;5052850;28;20185;-76
2022/02/24 01:18:27;;;;;;;2.50;1.80;;;1.50;99.90;;;;;;5053294;28;20169;-75
2022/02/24 01:20:53;;;;;;;5.37;1.83;;;1.50;99.90;;;;;;5056387;28;20194;-75
2022/02/24 01:23:18;;;;;;;4.87;1.97;;;1.60;99.90;;;;;;5054364;28;20420;-76
2022/02/24 01:25:44;;;;;;;2.40;2.00;;;1.60;99.90;;;;;;5053757;28;20186;-75
2022/02/24 01:28:10;;;;;;;2.50;1.93;;;1.60;99.90;;;;;;5055686;28;20204;-75
2022/02/24 01:30:35;;;;;;;2.47;1.87;;;1.50;99.90;;;;;;5056715;28;20209;-76
2022/02/24 01:33:01;;;;;;;2.70;2.00;;;1.70;99.90;;;;;;5055639;28;20189;-76
2022/02/24 01:35:27;;;;;;;3.00;1.90;;;1.70;99.90;;;;;;5056744;28;20174;-76
2022/02/24 01:37:52;;;;;;;2.23;1.83;;;1.60;99.90;;;;;;5056942;28;20177;-75
2022/02/24 01:40:18;;;;;;;2.57;1.87;;;1.60;99.90;;;;;;5056839;28;20202;-76
2022/02/24 01:42:45;;;;;;;2.10;1.47;;;1.60;99.90;;;;;;5056682;28;20174;-75
2022/02/24 01:45:11;;;;;;;4.67;1.80;;;1.60;99.90;;;;;;5056643;28;20182;-76
2022/02/24 01:47:37;;;;;;;1.77;1.60;;;1.50;99.90;;;;;;5056538;28;20770;-76
2022/02/24 01:50:06;;;;;;;2.73;1.60;;;1.50;99.90;;;;;;5056373;28;20466;-76
2022/02/24 01:52:33;;;;;;;1.87;1.60;;;1.50;99.90;;;;;;5055281;28;20185;-76
2022/02/24 01:54:58;;;;;;;2.13;1.93;;;1.40;99.90;;;;;;5054979;28;20523;-75
2022/02/24 01:57:24;;;;;;;3.10;1.80;;;1.40;99.90;;;;;;5056304;28;20506;-75
2022/02/24 01:59:50;;;;;;;3.03;1.87;;;1.40;99.90;;;;;;5056196;28;20234;-76
2022/02/24 02:02:16;;;;;;;2.00;1.67;;;1.40;99.90;;;;;;5056412;28;20185;-76
2022/02/24 02:04:43;;;;;;;2.07;1.83;;;1.40;99.90;;;;;;5056096;28;20420;-76
2022/02/24 02:07:09;;;;;;;2.00;1.80;;;1.30;99.90;;;;;;5055020;28;20527;-76
2022/02/24 02:09:37;;;;;;;3.73;1.67;;;1.40;99.90;;;;;;5054803;28;20455;-75
2022/02/24 02:12:03;;;;;;;1.80;1.53;;;1.40;99.90;;;;;;5056358;28;20533;-76
2022/02/24 02:14:29;;;;;;;2.40;1.40;;;1.40;99.90;;;;;;5054667;28;20420;-76
2022/02/24 02:16:56;;;;;;;1.60;1.50;;;1.40;99.90;;;;;;5055914;28;20415;-76
2022/02/24 02:19:22;;;;;;;1.57;1.10;;;1.40;99.90;;;;;;5054657;28;20504;-76
2022/02/24 02:21:48;;;;;;;3.40;1.40;;;1.40;99.90;;;;;;5056000;28;20197;-76
2022/02/24 02:24:14;;;;;;;2.40;1.50;;;1.30;99.90;;;;;;5054436;28;20416;-76
2022/02/24 02:26:41;;;;;;;1.70;1.50;;;1.30;99.90;;;;;;5054537;28;20796;-76
2022/02/24 02:29:10;;;;;;;2.73;1.40;;;1.30;99.90;;;;;;5055727;28;20503;-75
2022/02/24 02:31:35;;;;;;;1.60;1.30;;;1.30;99.90;;;;;;5054272;28;20519;-75
2022/02/24 02:34:01;;;;;;;1.70;1.43;;;1.30;99.90;;;;;;5055692;28;20778;-75
2022/02/24 02:36:27;;;;;;;1.57;1.40;;;1.30;99.90;;;;;;5055578;28;20174;-76
2022/02/24 02:38:53;;;;;;;1.33;1.23;;;1.30;99.90;;;;;;5055658;28;20180;-75
2022/02/24 02:41:18;;;;;;;1.60;1.50;;;1.20;99.90;;;;;;5055756;28;20247;-76
2022/02/24 02:43:44;;;;;;;1.37;1.27;;;1.10;99.90;;;;;;5055610;28;20292;-75
2022/02/24 02:46:10;;;;;;;3.00;1.50;;;1.40;99.90;;;;;;5054042;28;20185;-75
2022/02/24 02:48:36;;;;;;;1.30;1.20;;;1.10;99.90;;;;;;5055841;28;20665;-75
2022/02/24 02:51:02;;;;;;;2.13;1.50;;;1.00;99.90;;;;;;5055790;28;20491;-76
2022/02/24 02:53:28;;;;;;;2.20;1.10;;;0.90;99.90;;;;;;5055047;28;20184;-76
2022/02/24 02:55:53;;;;;;;1.37;1.27;;;1.10;99.90;;;;;;5055199;28;20578;-75
2022/02/24 02:58:19;;;;;;;2.10;1.63;;;0.90;99.90;;;;;;5054032;28;20606;-75
2022/02/24 03:00:45;;;;;;;6.20;1.63;;;0.90;99.90;;;;;;5055393;28;20709;-75
2022/02/24 03:03:10;;;;;;;1.33;1.23;;;0.90;99.90;;;;;;5055191;28;20190;-75
2022/02/24 03:05:36;;;;;;;1.63;1.27;;;0.90;99.90;;;;;;5054740;28;20201;-76
2022/02/24 03:08:02;;;;;;;1.87;1.20;;;0.90;99.90;;;;;;5055134;28;20208;-76
2022/02/24 03:10:28;;;;;;;1.77;1.43;;;0.80;99.90;;;;;;5054843;28;20612;-75
2022/02/24 03:12:54;;;;;;;1.50;1.40;;;0.90;99.90;;;;;;5054952;28;20542;-75
2022/02/24 03:15:19;;;;;;;1.73;1.30;;;0.90;99.90;;;;;;5054804;28;20162;-75
2022/02/24 03:17:47;;;;;;;1.23;1.07;;;0.90;99.90;;;;;;5054892;28;20639;-75
2022/02/24 03:20:13;;;;;;;1.70;1.30;;;0.90;99.90;;;;;;5055049;28;20199;-75
2022/02/24 03:22:39;;;;;;;2.27;1.47;;;0.90;99.90;;;;;;5054843;28;20746;-76
2022/02/24 03:25:06;;;;;;;1.50;1.40;;;0.90;99.90;;;;;;5053482;28;20456;-75
2022/02/24 03:27:32;;;;;;;2.60;1.70;;;0.90;99.90;;;;;;5055227;28;20421;-75
2022/02/24 03:29:57;;;;;;;1.47;1.10;;;0.90;99.90;;;;;;5058560;28;20534;-75
2022/02/24 03:32:24;;;;;;;3.53;1.60;;;0.90;99.90;;;;;;5054730;28;20496;-76
2022/02/24 03:34:50;;;;;;;2.43;1.60;;;0.90;99.90;;;;;;5053236;28;20223;-76
2022/02/24 03:37:16;;;;;;;1.20;1.10;;;0.90;99.90;;;;;;5054715;28;20507;-76
2022/02/24 03:39:42;;;;;;;1.30;1.20;;;0.90;99.90;;;;;;5053253;28;20446;-75
2022/02/24 03:42:08;;;;;;;1.80;1.50;;;0.90;99.90;;;;;;5054579;28;20420;-76
2022/02/24 03:44:34;;;;;;;1.40;1.23;;;0.80;99.90;;;;;;5054344;28;20192;-75
2022/02/24 03:47:00;;;;;;;1.77;1.40;;;0.80;99.90;;;;;;5053148;28;20503;-75
2022/02/24 03:49:26;;;;;;;3.03;1.80;;;0.80;99.90;;;;;;5053822;28;20550;-75
2022/02/24 03:51:52;;;;;;;3.77;1.40;;;0.80;99.90;;;;;;5054360;28;20265;-75
2022/02/24 03:54:18;;;;;;;1.33;1.23;;;0.80;99.90;;;;;;5054276;28;20173;-75
2022/02/24 03:56:44;;;;;;;1.23;1.13;;;0.80;99.90;;;;;;5054152;28;20219;-75
2022/02/24 03:59:10;;;;;;;1.23;1.13;;;0.80;99.90;;;;;;5053577;28;20502;-75
2022/02/24 04:01:36;;;;;;;1.57;1.30;;;0.80;99.90;;;;;;5052765;28;20570;-75
2022/02/24 04:04:01;;;;;;;3.43;1.63;;;0.70;99.90;;;;;;5054122;28;20174;-76
2022/02/24 04:06:27;;;;;;;1.93;1.30;;;0.70;99.90;;;;;;5054358;28;20185;-75
2022/02/24 04:08:53;;;;;;;1.53;1.40;;;0.70;99.90;;;;;;5053952;28;20205;-75
2022/02/24 04:11:18;;;;;;;2.13;1.30;;;0.80;99.90;;;;;;5053829;28;20189;-75
2022/02/24 04:13:44;;;;;;;4.53;1.27;;;0.80;99.90;;;;;;5053993;28;20165;-75
2022/02/24 04:16:10;;;;;;;1.77;1.20;;;0.80;99.90;;;;;;5053789;28;20197;-75
2022/02/24 04:18:35;;;;;;;1.10;1.00;;;0.90;99.90;;;;;;5054051;28;20166;-75
2022/02/24 04:21:01;;;;;;;1.60;1.37;;;0.80;99.90;;;;;;5053682;28;20237;-75
2022/02/24 04:23:26;;;;;;;1.47;1.10;;;0.80;99.90;;;;;;5053745;28;20256;-75
2022/02/24 04:25:52;;;;;;;1.27;1.03;;;0.80;99.90;;;;;;5053555;28;20177;-75
2022/02/24 04:28:18;;;;;;;1.30;1.20;;;0.80;99.90;;;;;;5053630;28;20181;-75
2022/02/24 04:30:43;;;;;;;1.13;1.03;;;0.70;99.90;;;;;;5052034;28;20209;-75
2022/02/24 04:33:09;;;;;;;1.13;1.03;;;0.70;99.90;;;;;;5052189;28;20174;-75
2022/02/24 04:35:35;;;;;;;1.30;1.20;;;0.70;99.90;;;;;;5053422;28;20635;-75
2022/02/24 04:38:02;;;;;;;1.00;1.00;;;0.70;99.90;;;;;;5052267;28;20464;-75
2022/02/24 04:40:28;;;;;;;1.33;1.00;;;0.70;99.90;;;;;;5053361;28;20442;-75
2022/02/24 04:42:53;;;;;;;1.67;1.17;;;0.70;99.90;;;;;;5052090;28;20412;-75
2022/02/24 04:45:19;;;;;;;1.73;1.07;;;0.70;99.90;;;;;;5053391;28;20201;-75
2022/02/24 04:47:44;;;;;;;1.70;1.37;;;0.80;99.90;;;;;;5053380;28;20654;-75
2022/02/24 04:50:10;;;;;;;1.33;1.10;;;0.70;99.90;;;;;;5051900;28;20209;-75
2022/02/24 04:52:38;;;;;;;1.33;1.23;;;0.70;99.90;;;;;;5052020;28;20184;-75
2022/02/24 04:55:07;;;;;;;1.40;1.07;;;0.60;99.90;;;;;;5053029;28;20491;-75
2022/02/24 04:57:33;;;;;;;1.47;1.20;;;0.60;99.90;;;;;;5053477;28;20404;-75
2022/02/24 04:59:58;;;;;;;1.90;1.30;;;0.60;99.90;;;;;;5053396;28;20442;-75
2022/02/24 05:02:24;;;;;;;2.07;1.37;;;0.70;99.90;;;;;;5057010;28;20174;-75
2022/02/24 05:04:50;;;;;;;3.27;1.27;;;0.80;99.90;;;;;;5057080;28;20182;-75
2022/02/24 05:07:16;;;;;;;1.30;1.13;;;0.60;99.90;;;;;;5057430;28;20158;-74
2022/02/24 05:09:42;;;;;;;1.67;1.20;;;0.60;99.90;;;;;;5057245;28;20211;-75
2022/02/24 05:12:08;;;;;;;1.30;1.10;;;0.70;99.90;;;;;;5057407;28;20642;-74
2022/02/24 05:14:34;;;;;;;1.30;1.03;;;0.70;99.90;;;;;;5057170;28;20914;-75
2022/02/24 05:17:00;;;;;;;1.30;1.20;;;0.70;99.90;;;;;;5057278;28;20412;-75
2022/02/24 05:19:26;;;;;;;4.43;1.00;;;0.70;99.90;;;;;;5057420;28;20218;-75
2022/02/24 05:21:51;;;;;;;1.53;1.13;;;0.90;99.90;;;;;;5057224;28;20177;-75
2022/02/24 05:24:17;;;;;;;1.97;1.33;;;0.70;99.90;;;;;;5056989;28;20172;-75
2022/02/24 05:26:43;;;;;;;1.13;1.03;;;0.80;99.90;;;;;;5055834;28;20208;-75
2022/02/24 05:29:09;;;;;;;1.03;1.00;;;0.70;99.90;;;;;;5056848;28;20219;-75
2022/02/24 05:31:34;;;;;;;3.93;1.00;;;0.70;99.90;;;;;;5056887;28;20293;-75
2022/02/24 05:34:00;;;;;;;1.30;1.17;;;0.70;99.90;;;;;;5057829;28;20176;-75
2022/02/24 05:36:26;;;;;;;1.97;1.20;;;0.70;99.90;;;;;;5059689;28;20173;-75
2022/02/24 05:38:54;;;;;;;1.37;1.13;;;0.80;99.90;;;;;;5057033;28;20170;-75
2022/02/24 05:41:20;;;;;;;2.73;1.17;;;0.70;99.90;;;;;;5056639;28;20285;-75
2022/02/24 05:43:47;;;;;;;0.93;0.83;;;0.70;99.90;;;;;;5056998;28;20487;-75
2022/02/24 05:46:12;;;;;;;2.67;1.57;;;0.80;99.90;;;;;;5056668;28;20684;-77
2022/02/24 05:48:38;;;;;;;1.73;1.40;;;0.80;99.90;;;;;;5056941;28;20499;-77
2022/02/24 05:51:04;;;;;;;1.70;1.23;;;0.80;99.90;;;;;;5056354;28;20296;-77
2022/02/24 05:53:29;;;;;;;1.90;1.10;;;0.80;99.90;;;;;;5056520;28;20284;-74
2022/02/24 05:55:55;;;;;;;1.13;1.00;;;0.90;99.90;;;;;;5055090;28;20184;-74
2022/02/24 05:58:21;;;;;;;1.77;1.00;;;0.90;99.90;;;;;;5056540;28;20178;-75
2022/02/24 06:00:46;;;;;;;2.10;1.00;;;0.90;99.90;;;;;;5056437;28;20189;-75
2022/02/24 06:03:12;;;;;;;1.90;1.27;;;1.00;99.90;;;;;;5056326;28;20180;-75
2022/02/24 06:05:39;;;;;;;3.07;1.57;;;1.10;99.90;;;;;;5056290;28;20269;-75
2022/02/24 06:08:05;;;;;;;3.10;1.30;;;1.00;99.90;;;;;;5056163;28;20185;-75
2022/02/24 06:10:30;;;;;;;1.53;1.10;;;1.00;99.90;;;;;;5056067;28;20501;-75
2022/02/24 06:12:58;;;;;;;1.23;1.13;;;1.00;99.90;;;;;;5054450;28;20188;-75
2022/02/24 06:15:24;;;;;;;1.30;1.10;;;1.00;99.90;;;;;;5056280;28;20220;-76
2022/02/24 06:17:50;;;;;;;1.63;1.20;;;1.00;99.90;;;;;;5056468;28;20404;-76
2022/02/24 06:20:15;;;;;;;1.50;1.20;;;1.10;99.90;;;;;;5056460;28;20240;-74
2022/02/24 06:22:41;;;;;;;3.13;1.37;;;1.10;99.90;;;;;;5055936;28;20182;-74
2022/02/24 06:25:07;;;;;;;1.50;1.40;;;1.10;99.90;;;;;;5055811;28;20174;-75
2022/02/24 06:27:33;;;;;;;2.10;1.30;;;1.10;99.90;;;;;;5056391;28;20707;-78
2022/02/24 06:29:58;;;;;;;2.00;1.43;;;1.10;99.90;;;;;;5055698;28;20542;-77
2022/02/24 06:32:24;;;;;;;1.17;1.07;;;1.20;99.90;;;;;;5055658;28;20205;-76
2022/02/24 06:34:50;;;;;;;1.30;1.13;;;1.30;99.90;;;;;;5054499;28;20170;-77
2022/02/24 06:37:16;;;;;;;2.40;1.10;;;1.20;99.90;;;;;;5055821;28;20173;-77
2022/02/24 06:39:42;;;;;;;1.90;1.20;;;1.30;99.90;;;;;;5054133;28;20202;-77
2022/02/24 06:42:08;;;;;;;1.80;1.20;;;1.30;99.90;;;;;;5054516;28;20461;-77
2022/02/24 06:44:34;;;;;;;3.07;1.30;;;1.30;99.90;;;;;;5055676;28;20408;-77
2022/02/24 06:46:59;;;;;;;1.40;1.20;;;1.30;99.90;;;;;;5055923;28;20627;-77
2022/02/24 06:49:25;;;;;;;2.30;1.53;;;1.50;99.90;;;;;;5054300;28;20201;-78
2022/02/24 06:51:53;;;;;;;2.93;1.43;;;1.50;99.90;;;;;;5055819;28;20594;-77
2022/02/24 06:54:18;;;;;;;1.53;1.10;;;1.50;99.90;;;;;;5055995;28;20219;-78
2022/02/24 06:56:44;;;;;;;1.70;1.13;;;1.60;99.90;;;;;;5054702;28;20428;-78
2022/02/24 06:59:10;;;;;;;1.67;1.30;;;1.60;99.90;;;;;;5054824;28;20280;-78
2022/02/24 07:01:35;;;;;;;3.17;1.47;;;1.60;99.90;;;;;;5054767;28;20201;-78
2022/02/24 07:04:01;;;;;;;2.07;1.33;;;1.50;99.90;;;;;;5054880;28;20189;-78
2022/02/24 07:06:27;;;;;;;5.33;1.37;;;1.70;99.90;;;;;;5055234;28;20284;-78
2022/02/24 07:08:53;;;;;;;2.63;1.60;;;1.80;99.90;;;;;;5054969;28;20232;-78
2022/02/24 07:11:18;;;;;;;2.53;1.50;;;1.80;99.90;;;;;;5057345;28;20941;-78
2022/02/24 07:13:44;;;;;;;1.90;1.57;;;1.90;99.90;;;;;;5067936;28;20182;-78
2022/02/24 07:16:10;;;;;;;2.73;1.50;;;2.00;99.90;;;;;;5057124;28;20203;-78
2022/02/24 07:18:35;;;;;;;1.63;1.43;;;2.10;99.90;;;;;;5057311;28;20173;-79
2022/02/24 07:21:01;;;;;;;3.47;1.57;;;2.10;99.90;;;;;;5055057;28;20223;-78
2022/02/24 07:23:26;;;;;;;3.90;1.97;;;2.20;99.90;;;;;;5051752;28;20208;-78
2022/02/24 07:25:58;;;;;;;1.70;1.60;;;2.20;99.90;;;;;;5054733;28;20177;-77
2022/02/24 07:28:24;;;;;;;4.77;1.50;;;2.20;99.90;;;;;;5054811;28;20157;-77
2022/02/24 07:30:50;;;;;;;2.53;1.50;;;2.20;99.90;;;;;;5055358;28;20558;-77
2022/02/24 07:33:16;;;;;;;2.57;1.60;;;2.20;99.90;;;;;;5054411;28;20172;-78
2022/02/24 07:35:41;;;;;;;4.60;1.87;;;2.30;99.90;;;;;;5054382;28;20161;-77
2022/02/24 07:38:07;;;;;;;3.63;1.60;;;2.40;99.90;;;;;;5053799;28;20423;-78
2022/02/24 07:40:33;;;;;;;2.43;2.10;;;2.50;99.90;;;;;;5055274;28;20193;-78
2022/02/24 07:42:58;;;;;;;2.50;1.83;;;2.60;99.90;;;;;;5058882;28;20217;-78
2022/02/24 07:45:24;;;;;;;4.60;1.60;;;2.70;99.90;;;;;;5055276;28;20180;-78
2022/02/24 07:47:50;;;;;;;5.27;1.80;;;2.70;99.90;;;;;;5055166;28;20647;-78
2022/02/24 07:50:16;;;;;;;8.27;2.00;;;2.90;99.90;;;;;;5055267;28;20216;-78
2022/02/24 07:52:46;;;;;;;2.43;1.87;;;3.00;99.90;;;;;;5055892;28;20176;-78
2022/02/24 07:55:13;;;;;;;1.87;1.70;;;3.10;99.90;;;;;;5054485;28;20260;-78
2022/02/24 07:57:40;;;;;;;2.33;1.70;;;3.40;99.90;;;;;;5055649;28;20165;-77
2022/02/24 08:00:12;;;;;;;1.40;1.30;;;3.80;99.90;;;;;;5055372;28;20424;-78
2022/02/24 08:02:38;;;;;;;4.70;1.67;;;4.30;99.90;;;;;;5055411;28;20170;-78
2022/02/24 08:05:04;;;;;;;2.47;1.50;;;4.90;99.90;;;;;;5053996;28;20439;-79
2022/02/24 08:07:30;;;;;;;2.87;1.63;;;5.70;99.90;;;;;;5055499;28;20178;-78
2022/02/24 08:09:56;;;;;;;2.47;1.63;;;6.40;99.90;;;;;;5055462;28;20201;-78
2022/02/24 08:12:42;;;;;;;3.53;2.47;;;6.40;99.90;;;;;;5055902;28;20595;-79
2022/02/24 08:15:09;;;;;;;5.60;2.70;;;6.40;99.90;;;;;;5053915;28;20611;-78
2022/02/24 08:17:35;;;;;;;2.40;1.70;;;6.50;99.90;;;;;;5053927;28;20190;-78
2022/02/24 08:20:05;;;;;;;3.30;1.70;;;6.70;99.90;;;;;;5055373;28;20202;-78
2022/02/24 08:22:32;;;;;;;3.43;2.00;;;7.10;99.90;;;;;;5055495;28;20174;-78
2022/02/24 08:24:57;;;;;;;4.37;1.70;;;7.40;99.90;;;;;;5054842;28;20181;-78
2022/02/24 08:27:23;;;;;;;6.10;1.87;;;7.30;99.90;;;;;;5055645;28;20692;-79
2022/02/24 08:29:49;;;;;;;4.40;2.00;;;7.30;99.90;;;;;;5055369;28;20217;-78
2022/02/24 08:32:14;;;;;;;2.57;1.77;;;7.50;99.90;;;;;;5054430;28;20189;-78
2022/02/24 08:34:40;;;;;;;3.17;2.10;;;7.90;99.90;;;;;;5056365;28;20179;-78
2022/02/24 08:37:06;;;;;;;2.37;1.60;;;8.00;99.90;;;;;;5055247;28;20184;-78
2022/02/24 08:39:31;;;;;;;2.27;1.60;;;8.20;98.70;;;;;;5055012;28;20638;-79
2022/02/24 08:41:57;;;;;;;3.73;1.53;;;8.40;98.00;;;;;;5056673;28;20183;-78
2022/02/24 08:44:22;;;;;;;2.10;1.13;;;8.40;97.10;;;;;;5055087;28;20193;-78
2022/02/24 08:46:48;;;;;;;1.63;1.33;;;8.40;97.20;;;;;;5055516;28;20176;-78
2022/02/24 08:49:14;;;;;;;1.50;1.20;;;8.40;97.10;;;;;;5054915;28;20197;-78
2022/02/24 08:51:40;;;;;;;2.50;1.23;;;8.60;97.20;;;;;;5054981;28;20251;-78
2022/02/24 08:54:06;;;;;;;2.27;1.40;;;8.40;96.90;;;;;;5053090;28;20181;-78
2022/02/24 08:56:31;;;;;;;1.43;1.10;;;8.40;96.90;;;;;;5054450;28;20196;-78
2022/02/24 08:58:57;;;;;;;1.80;1.17;;;8.40;96.40;;;;;;5054720;28;20174;-78
2022/02/24 09:01:23;;;;;;;2.17;1.40;;;8.60;96.40;;;;;;5054427;28;20255;-78
2022/02/24 09:03:49;;;;;;;3.73;1.67;;;9.10;95.50;;;;;;5054583;28;20173;-78
2022/02/24 09:06:16;;;;;;;5.00;1.90;;;9.10;95.20;;;;;;5052454;28;20220;-78
2022/02/24 09:08:43;;;;;;;1.87;1.30;;;9.10;95.20;;;;;;5053819;28;20194;-78
2022/02/24 09:11:09;;;;;;;5.87;1.30;;;9.00;95.10;;;;;;5055331;28;20205;-79
2022/02/24 09:13:35;;;;;;;1.77;1.30;;;8.90;94.70;;;;;;5057541;28;20231;-79
2022/02/24 09:16:00;;;;;;;2.13;1.33;;;8.80;94.80;;;;;;5056408;28;20201;-79
2022/02/24 09:18:26;;;;;;;1.27;1.10;;;8.50;95.10;;;;;;5056720;28;20196;-78
2022/02/24 09:20:52;;;;;;;1.43;1.17;;;8.30;95.60;;;;;;5055056;28;20205;-79
2022/02/24 09:23:18;;;;;;;2.13;1.40;;;8.20;96.10;;;;;;5055858;28;20174;-79
2022/02/24 09:25:43;;;;;;;2.40;1.53;;;8.30;96.20;;;;;;5054666;28;20177;-79
2022/02/24 09:28:09;;;;;;;2.27;1.50;;;8.50;96.80;;;;;;5055824;28;20208;-78
2022/02/24 09:30:35;;;;;;;2.10;1.50;;;8.80;96.00;;;;;;5055802;28;20210;-78
2022/02/24 09:33:01;;;;;;;2.20;1.60;;;9.10;97.10;;;;;;5055086;28;20178;-79
2022/02/24 09:35:26;;;;;;;1.93;1.40;;;9.50;95.70;;;;;;5055327;28;20223;-78
2022/02/24 09:37:52;;;;;;;2.30;1.40;;;9.80;96.30;;;;;;5054917;28;20178;-78
2022/02/24 09:40:18;;;;;;;3.13;2.37;;;10.20;96.00;;;;;;5056080;28;20327;-78
2022/02/24 09:42:44;;;;;;;2.70;1.67;;;10.70;93.90;;;;;;5055432;28;20178;-78
2022/02/24 09:45:12;;;;;;;2.20;1.50;;;10.80;93.40;;;;;;5056783;28;20185;-78
2022/02/24 09:47:39;;;;;;;3.20;1.50;;;10.40;93.80;;;;;;5060819;28;20193;-79
2022/02/24 09:50:06;;;;;;;2.60;1.47;;;10.70;93.80;;;;;;5059288;28;20205;-80
2022/02/24 09:52:33;;;;;;;3.73;1.67;;;11.00;93.60;;;;;;5060932;28;20170;-79
2022/02/24 09:54:59;;;;;;;4.07;1.70;;;11.20;94.30;;;;;;5076320;28;20169;-78
2022/02/24 09:57:25;;;;;;;8.20;1.80;;;11.70;93.90;;;;;;5077697;28;20640;-78
2022/02/24 09:59:50;;;;;;;1.90;1.40;;;12.10;92.70;;;;;;5074684;28;20231;-78
2022/02/24 10:02:16;;;;;;;2.20;1.40;;;12.50;92.70;;;;;;5060592;28;20185;-79
2022/02/24 10:05:08;;;;;;;4.10;2.10;;;12.80;91.30;;;;;;5060679;28;20226;-79
2022/02/24 10:07:38;;;;;;;2.87;1.87;;;13.00;90.50;;;;;;5061001;28;20232;-79
2022/02/24 10:10:27;;;;;;;3.50;1.90;;;13.10;91.90;;;;;;5058587;28;20213;-79
2022/02/24 10:13:11;;;;;;;2.40;1.40;;;13.50;89.50;;;;;;5057945;28;20650;-77
2022/02/24 10:15:40;;;;;;;2.33;1.23;;;14.20;91.30;;;;;;5056198;28;20184;-77
2022/02/24 10:18:12;;;;;;;2.17;1.40;;;14.40;84.70;;;;;;5057578;28;20267;-77
2022/02/24 10:20:44;;;;;;;2.07;1.50;;;14.60;84.80;;;;;;5057964;28;20211;-77
2022/02/24 10:23:11;;;;;;;2.17;1.20;;;14.90;82.80;;;;;;5059046;28;20174;-77
2022/02/24 10:25:42;;;;;;;1.70;1.17;;;14.70;84.80;;;;;;5058722;28;20174;-77
2022/02/24 10:28:28;;;;;;;1.60;1.00;;;14.90;78.90;;;;;;5057810;28;20162;-78
2022/02/24 10:30:53;;;;;;;2.20;1.63;;;14.90;76.90;;;;;;5060957;28;20343;-78
2022/02/24 10:33:30;;;;;;;3.53;1.50;;;15.00;77.40;;;;;;5059444;28;20222;-77
2022/02/24 10:36:18;;;;;;;1.20;1.10;;;14.80;73.90;;;;;;5058760;28;20203;-77
2022/02/24 10:38:58;;;;;;;1.60;1.30;;;14.90;72.60;;;;;;5056694;28;20174;-78
2022/02/24 10:41:32;;;;;;;1.60;1.10;;;14.50;72.20;;;;;;5058010;28;20224;-78
2022/02/24 10:44:18;;;;;;;2.00;1.10;;;14.30;73.90;;;;;;5057527;28;20184;-78
2022/02/24 10:46:50;;;;;;;1.93;1.30;;;14.70;73.50;;;;;;5056340;28;20188;-77
2022/02/24 10:49:36;;;;;;;1.30;1.07;;;14.90;69.70;;;;;;5057944;28;20176;-77
2022/02/24 10:52:22;;;;;;;1.90;1.10;;;14.60;71.30;;;;;;5057692;28;20212;-77
2022/02/24 10:55:03;;;;;;;3.43;1.30;;;14.50;71.30;;;;;;5055898;28;20206;-77
2022/02/24 10:57:30;;;;;;;3.63;1.30;;;14.60;68.10;;;;;;5057181;28;20154;-78
2022/02/24 10:59:57;;;;;;;1.97;1.40;;;14.80;70.70;;;;;;5056449;28;20296;-77
2022/02/24 11:02:24;;;;;;;3.43;1.23;;;15.40;69.00;;;;;;5055824;28;20219;-78
2022/02/24 11:04:52;;;;;;;1.73;1.10;;;15.20;66.70;;;;;;5055241;28;20244;-77
2022/02/24 11:07:17;;;;;;;3.00;1.13;;;15.10;69.70;;;;;;5056518;28;20193;-78
2022/02/24 11:09:44;;;;;;;1.70;1.23;;;15.30;65.80;;;;;;5055079;28;20224;-77
2022/02/24 11:12:12;;;;;;;1.40;1.27;;;15.00;68.60;;;;;;5056463;28;20170;-77
2022/02/24 11:14:41;;;;;;;1.70;1.40;;;15.00;66.80;;;;;;5057673;28;20177;-77
2022/02/24 11:17:11;;;;;;;2.90;1.20;;;15.00;65.40;;;;;;5058089;28;20545;-77
2022/02/24 11:19:38;;;;;;;1.93;1.20;;;14.90;67.90;;;;;;5057797;28;20671;-78
2022/02/24 11:22:08;;;;;;;2.93;1.57;;;14.90;69.20;;;;;;5057061;28;20179;-77
2022/02/24 11:24:35;;;;;;;1.87;1.07;;;14.90;65.10;;;;;;5054515;28;20264;-76
2022/02/24 11:27:17;;;;;;;2.53;1.27;;;14.80;65.90;;;;;;5056038;28;20165;-77
2022/02/24 11:29:50;;;;;;;2.30;1.37;;;14.70;67.00;;;;;;5055992;28;20198;-77
2022/02/24 11:32:27;;;;;;;1.73;1.10;;;14.70;68.90;;;;;;5056195;28;20520;-77
2022/02/24 11:35:07;;;;;;;1.83;1.10;;;14.40;66.20;;;;;;5055789;28;20157;-77
2022/02/24 11:37:35;;;;;;;2.40;1.20;;;14.00;66.70;;;;;;5054690;28;20166;-77
2022/02/24 11:40:04;;;;;;;1.57;1.00;;;13.90;67.40;;;;;;5054509;28;20209;-77
2022/02/24 11:42:32;;;;;;;1.30;1.00;;;13.90;67.10;;;;;;5055778;28;20170;-77
2022/02/24 11:44:58;;;;;;;1.50;1.07;;;14.00;67.50;;;;;;5056113;28;20636;-77
2022/02/24 11:47:24;;;;;;;2.53;1.47;;;14.10;68.20;;;;;;5055064;28;20180;-77
2022/02/24 11:49:53;;;;;;;2.07;1.30;;;14.20;68.40;;;;;;5058762;28;20190;-78
2022/02/24 11:52:29;;;;;;;3.13;1.30;;;14.60;67.10;;;;;;5061626;28;20182;-78
2022/02/24 11:54:56;;;;;;;1.30;0.90;;;14.70;67.00;;;;;;5058333;28;20608;-78
2022/02/24 11:57:39;;;;;;;3.17;1.10;;;14.30;65.80;;;;;;5054417;28;20178;-77
2022/02/24 12:00:14;;;;;;;1.67;1.00;;;13.70;68.70;;;;;;5054890;28;20213;-77
2022/02/24 12:02:43;;;;;;;1.20;0.80;;;13.60;68.30;;;;;;5053370;28;20639;-77
2022/02/24 12:05:26;;;;;;;2.60;0.90;;;13.30;66.70;;;;;;5053489;28;20547;-78
2022/02/24 12:08:03;;;;;;;2.47;1.07;;;13.20;67.40;;;;;;5054615;28;20162;-77
2022/02/24 12:10:45;;;;;;;2.23;1.10;;;13.50;67.60;;;;;;5052750;28;20584;-77
2022/02/24 12:13:25;;;;;;;2.10;0.90;;;13.60;66.80;;;;;;5053051;28;20178;-78
2022/02/24 12:16:20;;;;;;;1.87;0.90;;;13.60;66.10;;;;;;5054834;28;20176;-78
2022/02/24 12:18:47;;;;;;;1.07;0.93;;;13.90;67.40;;;;;;5053445;28;20188;-78
2022/02/24 12:21:34;;;;;;;5.30;1.03;;;14.50;67.10;;;;;;5054643;28;20201;-78
2022/02/24 12:24:02;;;;;;;1.40;1.00;;;14.50;64.80;;;;;;5054559;28;20180;-78
2022/02/24 12:26:43;;;;;;;2.40;0.97;;;14.50;68.00;;;;;;5054868;28;20223;-78
2022/02/24 12:29:42;;;;;;;1.43;1.03;;;14.60;64.00;;;;;;5055835;28;20196;-78
2022/02/24 12:32:08;;;;;;;1.40;0.87;;;14.00;64.40;;;;;;5050476;28;20270;-77
2022/02/24 12:34:35;;;;;;;1.63;1.13;;;14.00;64.00;;;;;;5052950;28;20225;-78
2022/02/24 12:37:08;;;;;;;1.73;0.97;;;13.70;66.70;;;;;;5054191;28;20183;-78
2022/02/24 12:39:36;;;;;;;1.67;1.13;;;13.00;65.00;;;;;;5054216;28;20635;-78
2022/02/24 12:42:04;;;;;;;4.70;1.30;;;13.00;65.20;;;;;;5054226;28;20176;-78
2022/02/24 12:44:31;;;;;;;1.73;1.03;;;13.00;66.40;;;;;;5053767;28;20176;-78
2022/02/24 12:46:58;;;;;;;2.40;1.20;;;13.20;66.60;;;;;;5052492;28;20175;-77
2022/02/24 12:49:24;;;;;;;2.60;1.17;;;13.70;64.30;;;;;;5054162;28;20266;-78
2022/02/24 12:51:56;;;;;;;2.83;1.03;;;13.70;64.80;;;;;;5054675;28;20184;-78
2022/02/24 12:54:22;;;;;;;4.50;1.57;;;13.90;65.20;;;;;;5052848;28;20176;-78
2022/02/24 12:56:47;;;;;;;2.83;1.30;;;13.90;66.30;;;;;;5055345;28;20626;-78